createdAt,value
2018-03-30T00:04:36.858Z,11.30
2018-03-30T00:09:51.896Z,12.70
2018-03-30T00:14:54.504Z,14.50
2018-03-30T00:19:58.753Z,14.50
2018-03-30T00:25:01.325Z,14.93
2018-03-30T00:30:04.053Z,14.57
2018-03-30T00:35:06.739Z,15.07
2018-03-30T00:40:10.090Z,13.57
2018-03-30T00:45:12.686Z,14.50
2018-03-30T00:50:15.969Z,14.03
2018-03-30T00:55:20.063Z,12.83
2018-03-30T01:00:23.231Z,13.30
2018-03-30T01:05:26.356Z,13.13
2018-03-30T01:10:28.960Z,11.73
2018-03-30T01:15:32.183Z,12.30
2018-03-30T01:20:35.345Z,11.90
2018-03-30T01:25:38.977Z,13.87
2018-03-30T01:30:42.316Z,12.37
2018-03-30T01:35:45.640Z,10.43
2018-03-30T01:40:48.235Z,13.53
2018-03-30T01:45:51.103Z,14.17
2018-03-30T01:50:54.480Z,14.27
2018-03-30T01:55:57.102Z,16.07
2018-03-30T02:01:00.136Z,15.40
2018-03-30T02:06:03.486Z,16.03
2018-03-30T02:11:06.082Z,15.10
2018-03-30T02:16:09.585Z,16.90
2018-03-30T02:21:12.192Z,16.30
2018-03-30T02:26:14.774Z,15.37
2018-03-30T02:31:17.373Z,15.20
2018-03-30T02:36:19.965Z,15.90
2018-03-30T02:41:23.072Z,14.93
2018-03-30T02:46:26.418Z,15.40
2018-03-30T02:51:29.012Z,15.50
2018-03-30T02:56:31.598Z,14.67
2018-03-30T03:01:34.188Z,15.30
2018-03-30T03:06:36.788Z,14.97
2018-03-30T03:11:39.368Z,16.53
2018-03-30T03:16:42.718Z,16.23
2018-03-30T03:21:45.297Z,15.23
2018-03-30T03:26:47.891Z,15.13
2018-03-30T03:31:51.249Z,15.20
2018-03-30T03:36:53.834Z,15.87
2018-03-30T03:41:56.434Z,16.67
2018-03-30T03:46:59.229Z,15.60
2018-03-30T03:52:01.820Z,14.90
2018-03-30T03:57:05.188Z,14.97
2018-03-30T04:02:07.780Z,16.07
2018-03-30T04:07:10.352Z,19.63
2018-03-30T04:12:12.961Z,16.77
2018-03-30T04:17:15.572Z,15.67
2018-03-30T04:22:18.161Z,17.27
2018-03-30T04:27:30.697Z,17.50
2018-03-30T04:32:33.309Z,18.50
2018-03-30T04:37:35.876Z,18.57
2018-03-30T04:42:39.201Z,16.30
2018-03-30T04:47:42.461Z,17.00
2018-03-30T04:52:45.264Z,17.23
2018-03-30T04:57:48.706Z,17.87
2018-03-30T05:02:52.407Z,18.07
2018-03-30T05:07:55.058Z,18.50
2018-03-30T05:12:57.677Z,19.90
2018-03-30T05:18:00.289Z,18.97
2018-03-30T05:23:02.864Z,20.30
2018-03-30T05:28:06.028Z,20.00
2018-03-30T05:33:08.923Z,20.60
2018-03-30T05:38:12.967Z,20.40
2018-03-30T05:43:16.065Z,22.20
2018-03-30T05:48:18.691Z,21.00
2018-03-30T05:53:21.461Z,21.23
2018-03-30T05:58:24.085Z,22.40
2018-03-30T06:03:26.672Z,21.40
2018-03-30T06:08:29.306Z,24.83
2018-03-30T06:13:31.882Z,22.83
2018-03-30T06:18:34.915Z,21.30
2018-03-30T06:23:37.487Z,19.90
2018-03-30T06:28:40.085Z,20.50
2018-03-30T06:33:43.362Z,18.60
2018-03-30T06:38:45.968Z,18.90
2018-03-30T06:43:49.777Z,19.10
2018-03-30T06:48:52.372Z,18.43
2018-03-30T06:53:55.389Z,17.80
2018-03-30T06:58:58.554Z,17.30
2018-03-30T07:04:11.571Z,16.67
2018-03-30T07:09:14.481Z,18.80
2018-03-30T07:14:17.074Z,16.17
2018-03-30T07:19:20.418Z,16.50
2018-03-30T07:24:22.993Z,16.93
2018-03-30T07:29:26.461Z,17.70
2018-03-30T07:34:29.065Z,18.30
2018-03-30T07:39:31.661Z,16.93
2018-03-30T07:44:36.037Z,16.73
2018-03-30T07:49:39.920Z,14.53
2018-03-30T07:54:42.697Z,15.60
2018-03-30T07:59:46.010Z,14.60
2018-03-30T08:04:48.601Z,13.13
2018-03-30T08:09:51.203Z,11.57
2018-03-30T08:14:54.113Z,9.77
2018-03-30T08:19:57.576Z,10.60
2018-03-30T08:25:01.706Z,11.00
2018-03-30T08:30:04.643Z,10.70
2018-03-30T08:35:08.233Z,10.40
2018-03-30T08:40:11.271Z,10.47
2018-03-30T08:45:15.398Z,10.10
2018-03-30T08:50:19.539Z,10.60
2018-03-30T08:55:22.924Z,11.17
2018-03-30T09:00:25.469Z,12.53
2018-03-30T09:05:28.071Z,12.53
2018-03-30T09:10:31.408Z,13.07
2018-03-30T09:15:33.995Z,12.63
2018-03-30T09:20:36.565Z,11.33
2018-03-30T09:25:39.920Z,11.67
2018-03-30T09:30:42.505Z,10.90
2018-03-30T09:35:45.102Z,11.30
2018-03-30T09:40:47.684Z,11.20
2018-03-30T09:45:50.740Z,17.50
2018-03-30T09:50:53.601Z,16.90
2018-03-30T09:55:56.198Z,14.83
2018-03-30T10:01:01.730Z,14.83
2018-03-30T10:06:04.926Z,14.07
2018-03-30T10:11:07.506Z,14.37
2018-03-30T10:16:10.085Z,13.90
2018-03-30T10:21:12.972Z,9.90
2018-03-30T10:26:18.057Z,7.97
2018-03-30T10:31:21.233Z,4.03
2018-03-30T10:36:25.169Z,3.50
2018-03-30T10:41:28.548Z,4.03
2018-03-30T10:46:31.143Z,4.07
2018-03-30T10:51:33.736Z,3.80
2018-03-30T10:56:36.629Z,4.20
2018-03-30T11:01:45.054Z,3.37
2018-03-30T11:06:48.237Z,3.33
2018-03-30T11:11:51.587Z,3.33
2018-03-30T11:16:54.181Z,4.83
2018-03-30T11:21:56.772Z,8.07
2018-03-30T11:26:59.360Z,12.03
2018-03-30T11:32:01.954Z,5.90
2018-03-30T11:37:04.541Z,2.90
2018-03-30T11:42:08.202Z,3.53
2018-03-30T11:47:10.805Z,3.33
2018-03-30T11:52:13.983Z,2.80
2018-03-30T11:57:16.573Z,2.90
2018-03-30T12:02:20.536Z,4.20
2018-03-30T12:07:23.120Z,3.63
2018-03-30T12:12:27.120Z,2.50
2018-03-30T12:17:30.480Z,2.23
2018-03-30T12:22:33.408Z,2.57
2018-03-30T12:27:36.003Z,2.90
2018-03-30T12:32:38.775Z,2.60
2018-03-30T12:37:41.402Z,2.50
2018-03-30T12:42:43.984Z,2.50
2018-03-30T12:47:49.397Z,2.20
2018-03-30T12:52:52.463Z,2.00
2018-03-30T12:57:57.540Z,1.80
2018-03-30T13:03:00.413Z,1.30
2018-03-30T13:08:03.520Z,1.60
2018-03-30T13:13:08.608Z,1.27
2018-03-30T13:18:11.253Z,1.40
2018-03-30T13:23:14.606Z,1.40
2018-03-30T13:28:17.189Z,1.50
2018-03-30T13:33:20.045Z,1.37
2018-03-30T13:38:23.088Z,1.60
2018-03-30T13:43:32.388Z,1.10
2018-03-30T13:48:34.961Z,1.00
2018-03-30T13:53:39.282Z,1.30
2018-03-30T13:58:45.309Z,1.10
2018-03-30T14:03:53.266Z,1.13
2018-03-30T14:08:57.424Z,1.30
2018-03-30T14:14:00.019Z,1.07
2018-03-30T14:19:06.520Z,1.33
2018-03-30T14:24:10.626Z,1.20
2018-03-30T14:29:23.445Z,1.40
2018-03-30T14:34:42.229Z,1.10
2018-03-30T14:39:50.506Z,1.27
2018-03-30T14:56:00.109Z,1.70
2018-03-30T15:01:10.910Z,2.43
2018-03-30T15:06:18.133Z,1.80
2018-03-30T15:11:34.242Z,2.67
2018-03-30T15:16:42.776Z,3.60
2018-03-30T15:27:23.417Z,3.00
2018-03-30T15:38:14.238Z,1.80
2018-03-30T15:43:16.828Z,2.00
2018-03-30T15:48:19.411Z,1.70
2018-03-30T15:53:21.511Z,1.53
2018-03-30T15:58:26.725Z,1.70
2018-03-30T16:03:29.314Z,1.70
2018-03-30T16:08:32.007Z,1.53
2018-03-30T16:13:35.794Z,1.50
2018-03-30T16:18:50.402Z,2.03
2018-03-30T16:23:52.625Z,2.10
2018-03-30T16:28:54.729Z,3.67
2018-03-30T16:33:57.208Z,5.53
2018-03-30T16:38:59.301Z,5.23
2018-03-30T16:44:01.381Z,5.87
2018-03-30T16:49:03.586Z,5.27
2018-03-30T16:54:06.355Z,5.50
2018-03-30T16:59:09.197Z,5.63
2018-03-30T17:04:12.320Z,5.50
2018-03-30T17:09:15.174Z,5.17
2018-03-30T17:14:18.049Z,5.50
2018-03-30T17:19:20.137Z,5.33
2018-03-30T17:24:22.212Z,5.30
2018-03-30T17:29:25.446Z,6.20
2018-03-30T17:34:27.919Z,5.40
2018-03-30T17:39:30.016Z,5.10
2018-03-30T17:44:32.128Z,4.50
2018-03-30T17:49:34.981Z,3.90
2018-03-30T17:54:37.075Z,3.37
2018-03-30T17:59:39.301Z,2.83
2018-03-30T18:04:42.153Z,2.80
2018-03-30T18:09:44.234Z,1.80
2018-03-30T18:14:46.907Z,1.73
2018-03-30T18:19:48.994Z,1.50
2018-03-30T18:24:51.711Z,1.10
2018-03-30T18:29:53.808Z,1.20
2018-03-30T18:34:58.940Z,1.30
2018-03-30T18:40:01.054Z,1.30
2018-03-30T18:45:03.140Z,1.33
2018-03-30T18:50:05.716Z,1.10
2018-03-30T18:55:07.803Z,1.50
2018-03-30T19:00:09.884Z,1.43
2018-03-30T19:05:12.067Z,1.27
2018-03-30T19:10:14.950Z,1.30
2018-03-30T19:15:17.058Z,1.10
2018-03-30T19:20:19.957Z,1.43
2018-03-30T19:25:23.648Z,2.00
2018-03-30T19:30:28.317Z,1.67
2018-03-30T19:35:30.397Z,1.73
2018-03-30T19:40:33.250Z,1.40
2018-03-30T19:45:37.087Z,1.20
2018-03-30T19:50:39.237Z,1.20
2018-03-30T19:55:42.098Z,1.20
2018-03-30T20:00:44.199Z,2.00
2018-03-30T20:05:47.049Z,1.37
2018-03-30T20:10:49.390Z,1.60
2018-03-30T20:15:51.502Z,1.73
2018-03-30T20:20:54.357Z,1.47
2018-03-30T20:25:56.591Z,1.23
2018-03-30T20:31:00.121Z,1.17
2018-03-30T20:36:02.972Z,1.10
2018-03-30T20:41:05.496Z,1.37
2018-03-30T20:46:07.609Z,1.47
2018-03-30T20:51:10.460Z,1.60
2018-03-30T20:56:12.563Z,1.33
2018-03-30T21:01:14.668Z,1.07
2018-03-30T21:06:16.765Z,1.03
2018-03-30T21:11:18.845Z,1.23
2018-03-30T21:16:20.921Z,1.13
2018-03-30T21:21:23.008Z,1.37
2018-03-30T21:26:25.412Z,1.10
2018-03-30T21:31:28.280Z,1.00
2018-03-30T21:36:30.419Z,0.90
2018-03-30T21:41:33.286Z,1.40
2018-03-30T21:46:35.514Z,1.40
2018-03-30T21:51:37.908Z,1.10
2018-03-30T21:56:40.050Z,1.20
2018-03-30T22:01:42.899Z,1.27
2018-03-30T22:06:45.499Z,1.57
2018-03-30T22:11:48.373Z,1.00
2018-03-30T22:16:50.880Z,0.97
2018-03-30T22:21:52.978Z,1.30
2018-03-30T22:26:55.844Z,1.10
2018-03-30T22:31:58.194Z,1.00
2018-03-30T22:37:00.296Z,0.97
2018-03-30T22:42:02.393Z,1.00
2018-03-30T22:47:04.492Z,0.80
2018-03-30T22:52:06.582Z,0.80
2018-03-30T22:57:08.718Z,1.00
2018-03-30T23:02:12.434Z,0.70
2018-03-30T23:07:15.297Z,0.97
2018-03-30T23:12:17.776Z,0.90
2018-03-30T23:17:19.851Z,0.80
2018-03-30T23:22:21.978Z,0.80
2018-03-30T23:27:24.433Z,0.93
2018-03-30T23:32:28.415Z,0.80
2018-03-30T23:37:34.059Z,0.87
2018-03-30T23:42:36.152Z,1.00
2018-03-30T23:47:38.257Z,0.80
2018-03-30T23:52:41.187Z,1.03
2018-03-30T23:57:44.057Z,0.80
